createdAt,value
2018-04-22T00:01:01.211Z,94.10
2018-04-22T00:03:28.160Z,94.00
2018-04-22T00:05:54.869Z,94.20
2018-04-22T00:08:21.609Z,94.20
2018-04-22T00:10:48.349Z,94.30
2018-04-22T00:13:15.115Z,94.50
2018-04-22T00:15:41.960Z,94.60
2018-04-22T00:18:08.591Z,94.70
2018-04-22T00:20:35.339Z,94.90
2018-04-22T00:23:02.079Z,95.00
2018-04-22T00:25:28.760Z,95.00
2018-04-22T00:27:56.938Z,95.20
2018-04-22T00:30:24.451Z,95.30
2018-04-22T00:32:51.599Z,95.30
2018-04-22T00:35:18.547Z,95.30
2018-04-22T00:37:45.280Z,95.40
2018-04-22T00:40:12.124Z,95.50
2018-04-22T00:42:38.768Z,95.70
2018-04-22T00:45:05.677Z,95.80
2018-04-22T00:47:32.551Z,95.80
2018-04-22T00:49:59.287Z,96.00
2018-04-22T00:52:26.238Z,96.40
2018-04-22T00:54:52.893Z,96.50
2018-04-22T00:57:19.576Z,96.40
2018-04-22T00:59:47.021Z,96.50
2018-04-22T01:02:13.916Z,96.50
2018-04-22T01:04:41.117Z,96.80
2018-04-22T01:07:07.799Z,96.50
2018-04-22T01:09:34.649Z,96.70
2018-04-22T01:12:01.488Z,96.70
2018-04-22T01:14:29.716Z,97.00
2018-04-22T01:16:56.381Z,97.10
2018-04-22T01:19:23.142Z,96.90
2018-04-22T01:21:49.992Z,97.00
2018-04-22T01:24:16.725Z,97.00
2018-04-22T01:26:43.379Z,97.00
2018-04-22T01:29:10.314Z,96.90
2018-04-22T01:31:37.353Z,97.00
2018-04-22T01:34:04.203Z,96.80
2018-04-22T01:36:31.045Z,96.80
2018-04-22T01:38:57.777Z,96.80
2018-04-22T01:41:24.728Z,96.80
2018-04-22T01:43:51.467Z,96.90
2018-04-22T01:46:18.311Z,96.80
2018-04-22T01:48:45.153Z,97.00
2018-04-22T01:51:11.893Z,97.10
2018-04-22T01:53:38.940Z,97.30
2018-04-22T01:56:05.884Z,97.40
2018-04-22T01:58:32.726Z,97.40
2018-04-22T02:01:00.389Z,97.20
2018-04-22T02:03:27.231Z,97.40
2018-04-22T02:05:54.065Z,97.60
2018-04-22T02:08:20.778Z,97.50
2018-04-22T02:10:47.459Z,97.60
2018-04-22T02:13:14.161Z,97.60
2018-04-22T02:15:40.924Z,97.70
2018-04-22T02:18:07.767Z,97.90
2018-04-22T02:20:34.468Z,97.90
2018-04-22T02:23:02.070Z,98.50
2018-04-22T02:25:28.810Z,98.50
2018-04-22T02:27:55.652Z,98.40
2018-04-22T02:30:22.596Z,98.30
2018-04-22T02:32:49.410Z,98.80
2018-04-22T02:35:16.233Z,99.00
2018-04-22T02:37:43.843Z,99.10
2018-04-22T02:40:11.339Z,99.10
2018-04-22T02:42:38.956Z,99.30
2018-04-22T02:45:05.799Z,99.40
2018-04-22T02:47:32.643Z,99.40
2018-04-22T02:49:59.479Z,99.30
2018-04-22T02:52:26.214Z,99.20
2018-04-22T02:54:53.782Z,99.10
2018-04-22T02:57:20.484Z,99.10
2018-04-22T02:59:47.255Z,99.20
2018-04-22T03:02:14.100Z,99.20
2018-04-22T03:04:40.761Z,99.20
2018-04-22T03:07:07.686Z,99.60
2018-04-22T03:09:34.637Z,99.50
2018-04-22T03:12:01.576Z,99.60
2018-04-22T03:14:28.315Z,99.70
2018-04-22T03:16:54.967Z,99.90
2018-04-22T03:19:22.513Z,99.90
2018-04-22T03:21:49.456Z,99.90
2018-04-22T03:24:16.501Z,99.90
2018-04-22T03:26:43.306Z,99.90
2018-04-22T03:29:10.797Z,99.90
2018-04-22T03:31:37.643Z,99.90
2018-04-22T03:34:04.343Z,99.90
2018-04-22T03:36:31.946Z,99.90
2018-04-22T03:38:58.785Z,99.90
2018-04-22T03:41:25.731Z,99.90
2018-04-22T03:43:52.394Z,99.90
2018-04-22T03:46:19.312Z,99.90
2018-04-22T03:48:46.153Z,99.90
2018-04-22T03:51:12.998Z,99.90
2018-04-22T03:53:39.702Z,99.90
2018-04-22T03:56:06.581Z,99.90
2018-04-22T03:58:33.424Z,99.90
2018-04-22T04:01:00.165Z,99.90
2018-04-22T04:03:27.010Z,99.90
2018-04-22T04:05:53.845Z,99.90
2018-04-22T04:08:20.792Z,99.90
2018-04-22T04:10:47.636Z,99.90
2018-04-22T04:13:14.370Z,99.90
2018-04-22T04:15:41.114Z,99.90
2018-04-22T04:21:45.923Z,99.90
2018-04-22T04:24:33.904Z,99.90
2018-04-22T04:30:01.996Z,99.90
2018-04-22T04:32:28.735Z,99.90
2018-04-22T04:34:55.680Z,99.90
2018-04-22T04:37:22.729Z,99.90
2018-04-22T04:39:49.390Z,99.90
2018-04-22T04:42:16.210Z,99.90
2018-04-22T04:44:43.151Z,99.90
2018-04-22T04:47:09.850Z,99.90
2018-04-22T04:49:36.587Z,99.90
2018-04-22T04:52:04.089Z,99.90
2018-04-22T04:54:30.927Z,99.90
2018-04-22T04:56:57.671Z,99.90
2018-04-22T04:59:24.615Z,99.90
2018-04-22T05:01:51.262Z,99.90
2018-04-22T05:04:18.091Z,99.90
2018-04-22T05:06:45.040Z,99.90
2018-04-22T05:09:11.986Z,99.90
2018-04-22T05:11:38.694Z,99.90
2018-04-22T05:14:06.081Z,99.90
2018-04-22T05:16:32.917Z,99.90
2018-04-22T05:18:59.661Z,99.90
2018-04-22T05:21:26.506Z,99.90
2018-04-22T05:23:53.166Z,99.90
2018-04-22T05:26:19.937Z,99.90
2018-04-22T05:28:47.346Z,99.90
2018-04-22T05:31:14.302Z,99.90
2018-04-22T05:33:41.226Z,99.90
2018-04-22T05:36:08.165Z,99.90
2018-04-22T05:38:34.835Z,99.90
2018-04-22T05:41:01.660Z,99.80
2018-04-22T05:43:28.496Z,99.60
2018-04-22T05:45:55.352Z,98.40
2018-04-22T05:48:22.013Z,97.40
2018-04-22T05:50:48.661Z,97.20
2018-04-22T05:53:15.329Z,96.20
2018-04-22T05:55:42.706Z,95.60
2018-04-22T05:58:09.445Z,94.80
2018-04-22T06:00:36.076Z,94.30
2018-04-22T06:03:02.860Z,93.80
2018-04-22T06:05:29.591Z,93.60
2018-04-22T06:07:56.406Z,93.10
2018-04-22T06:10:23.354Z,92.20
2018-04-22T06:12:50.086Z,91.30
2018-04-22T06:15:16.831Z,91.00
2018-04-22T06:17:43.488Z,90.00
2018-04-22T06:20:10.305Z,89.10
2018-04-22T06:22:37.256Z,88.20
2018-04-22T06:25:04.002Z,87.20
2018-04-22T06:27:30.842Z,86.70
2018-04-22T06:29:57.676Z,85.70
2018-04-22T06:32:24.623Z,84.80
2018-04-22T06:34:51.314Z,83.80
2018-04-22T06:37:18.309Z,83.20
2018-04-22T06:39:45.151Z,82.00
2018-04-22T06:42:12.095Z,81.60
2018-04-22T06:44:38.749Z,80.70
2018-04-22T06:47:05.473Z,80.30
2018-04-22T06:49:32.418Z,79.70
2018-04-22T06:51:59.154Z,78.70
2018-04-22T06:54:25.897Z,77.30
2018-04-22T06:56:52.942Z,76.00
2018-04-22T06:59:19.565Z,75.00
2018-04-22T07:01:46.321Z,75.10
2018-04-22T07:04:13.122Z,74.00
2018-04-22T07:06:40.728Z,73.20
2018-04-22T07:09:07.667Z,72.50
2018-04-22T07:11:34.305Z,72.60
2018-04-22T07:14:01.460Z,72.70
2018-04-22T07:16:28.206Z,71.80
2018-04-22T07:18:54.853Z,70.80
2018-04-22T07:21:21.778Z,70.50
2018-04-22T07:23:48.722Z,69.40
2018-04-22T07:26:15.458Z,69.40
2018-04-22T07:28:42.817Z,68.20
2018-04-22T07:31:09.762Z,67.80
2018-04-22T07:33:36.607Z,67.10
2018-04-22T07:36:03.345Z,66.80
2018-04-22T07:38:30.084Z,65.60
2018-04-22T07:40:56.917Z,64.90
2018-04-22T07:43:23.665Z,64.80
2018-04-22T07:45:50.407Z,64.20
2018-04-22T07:48:17.208Z,64.00
2018-04-22T07:50:44.704Z,63.70
2018-04-22T07:53:11.440Z,63.50
2018-04-22T07:55:38.184Z,63.70
2018-04-22T07:58:05.143Z,63.40
2018-04-22T08:00:32.073Z,63.50
2018-04-22T08:02:58.915Z,62.90
2018-04-22T08:05:25.862Z,62.30
2018-04-22T08:07:52.596Z,61.60
2018-04-22T08:10:19.647Z,61.80
2018-04-22T08:12:46.310Z,61.90
2018-04-22T08:15:13.128Z,61.60
2018-04-22T08:17:40.073Z,61.20
2018-04-22T08:20:06.814Z,61.30
2018-04-22T08:22:33.543Z,61.10
2018-04-22T08:25:00.289Z,61.90
2018-04-22T08:27:27.237Z,60.70
2018-04-22T08:29:53.975Z,60.90
2018-04-22T08:32:20.822Z,61.00
2018-04-22T08:34:47.658Z,61.90
2018-04-22T08:37:14.410Z,62.20
2018-04-22T08:39:41.182Z,62.00
2018-04-22T08:42:07.808Z,61.50
2018-04-22T08:44:35.132Z,60.80
2018-04-22T08:47:01.870Z,60.60
2018-04-22T08:49:28.612Z,59.60
2018-04-22T08:51:55.451Z,59.60
2018-04-22T08:54:22.704Z,59.60
2018-04-22T08:56:49.447Z,59.40
2018-04-22T08:59:16.183Z,58.80
2018-04-22T09:01:43.020Z,59.20
2018-04-22T09:04:09.871Z,58.70
2018-04-22T09:06:36.711Z,58.90
2018-04-22T09:09:03.557Z,58.80
2018-04-22T09:11:31.019Z,59.20
2018-04-22T09:13:58.579Z,59.40
2018-04-22T09:16:25.417Z,59.40
2018-04-22T09:18:52.124Z,59.70
2018-04-22T09:21:18.893Z,59.20
2018-04-22T09:23:45.737Z,59.30
2018-04-22T09:26:12.681Z,60.80
2018-04-22T09:28:39.340Z,60.20
2018-04-22T09:31:06.265Z,59.60
2018-04-22T09:33:32.940Z,60.60
2018-04-22T09:35:59.742Z,59.80
2018-04-22T09:38:26.594Z,59.70
2018-04-22T09:40:54.348Z,59.40
2018-04-22T09:43:21.191Z,58.30
2018-04-22T09:45:48.139Z,59.20
2018-04-22T09:48:14.884Z,58.80
2018-04-22T09:50:41.822Z,59.40
2018-04-22T09:53:08.663Z,59.40
2018-04-22T09:55:35.370Z,59.20
2018-04-22T09:58:02.246Z,59.30
2018-04-22T10:00:31.797Z,59.40
2018-04-22T10:02:58.797Z,58.80
2018-04-22T10:05:25.527Z,58.90
2018-04-22T10:07:52.481Z,59.00
2018-04-22T10:10:19.213Z,59.50
2018-04-22T10:12:45.868Z,59.30
2018-04-22T10:15:12.697Z,59.40
2018-04-22T10:17:39.444Z,58.60
2018-04-22T10:20:06.386Z,58.80
2018-04-22T10:22:33.228Z,57.90
2018-04-22T10:24:59.964Z,57.90
2018-04-22T10:27:26.633Z,58.60
2018-04-22T10:29:53.294Z,58.20
2018-04-22T10:32:20.188Z,58.70
2018-04-22T10:34:47.178Z,58.50
2018-04-22T10:37:13.946Z,58.50
2018-04-22T10:39:40.712Z,58.60
2018-04-22T10:42:07.558Z,58.50
2018-04-22T10:44:34.395Z,58.10
2018-04-22T10:47:01.344Z,58.30
2018-04-22T10:49:28.083Z,58.60
2018-04-22T10:51:54.721Z,59.10
2018-04-22T10:54:21.560Z,59.70
2018-04-22T10:56:48.234Z,59.10
2018-04-22T10:59:15.042Z,59.40
2018-04-22T11:01:41.880Z,60.10
2018-04-22T11:04:08.979Z,60.00
2018-04-22T11:06:35.776Z,59.80
2018-04-22T11:09:02.526Z,60.30
2018-04-22T11:11:30.751Z,59.80
2018-04-22T11:13:57.385Z,59.80
2018-04-22T11:16:24.880Z,59.60
2018-04-22T11:18:51.967Z,58.90
2018-04-22T11:21:18.776Z,58.20
2018-04-22T11:23:45.411Z,58.50
2018-04-22T11:26:12.255Z,58.30
2018-04-22T11:28:39.196Z,59.00
2018-04-22T11:31:06.145Z,58.40
2018-04-22T11:33:32.880Z,58.60
2018-04-22T11:35:59.727Z,59.10
2018-04-22T11:38:26.566Z,59.40
2018-04-22T11:40:53.418Z,58.70
2018-04-22T11:43:20.091Z,59.50
2018-04-22T11:45:46.995Z,59.00
2018-04-22T11:48:13.939Z,59.00
2018-04-22T11:50:40.678Z,58.60
2018-04-22T11:53:07.825Z,58.40
2018-04-22T11:55:34.671Z,58.20
2018-04-22T11:58:01.414Z,57.90
2018-04-22T12:00:28.356Z,58.30
2018-04-22T12:02:55.299Z,58.10
2018-04-22T12:05:22.139Z,57.80
2018-04-22T12:07:48.984Z,57.90
2018-04-22T12:10:15.827Z,58.20
2018-04-22T12:12:42.979Z,58.10
2018-04-22T12:15:09.718Z,57.70
2018-04-22T12:17:36.457Z,57.80
2018-04-22T12:20:03.134Z,57.90
2018-04-22T12:22:29.938Z,57.30
2018-04-22T12:24:56.658Z,56.90
2018-04-22T12:27:24.132Z,57.10
2018-04-22T12:29:50.977Z,57.00
2018-04-22T12:32:17.920Z,56.90
2018-04-22T12:34:44.865Z,56.50
2018-04-22T12:37:11.542Z,56.30
2018-04-22T12:39:38.345Z,56.50
2018-04-22T12:42:05.190Z,56.50
2018-04-22T12:44:32.131Z,56.60
2018-04-22T12:46:58.974Z,56.80
2018-04-22T12:49:25.644Z,57.30
2018-04-22T12:51:52.453Z,57.10
2018-04-22T12:54:19.190Z,56.90
2018-04-22T12:56:46.034Z,56.40
2018-04-22T12:59:12.791Z,56.30
2018-04-22T13:01:39.618Z,55.90
2018-04-22T13:04:06.358Z,55.80
2018-04-22T13:06:33.197Z,55.80
2018-04-22T13:09:00.043Z,56.10
2018-04-22T13:11:26.683Z,57.40
2018-04-22T13:13:53.624Z,55.80
2018-04-22T13:16:20.328Z,55.50
2018-04-22T13:18:46.997Z,54.80
2018-04-22T13:21:13.844Z,55.00
2018-04-22T13:23:40.789Z,54.80
2018-04-22T13:26:07.530Z,54.90
2018-04-22T13:28:34.371Z,55.20
2018-04-22T13:31:01.070Z,54.60
2018-04-22T13:33:28.566Z,53.70
2018-04-22T13:35:55.261Z,53.60
2018-04-22T13:38:22.147Z,53.80
2018-04-22T13:40:48.887Z,53.90
2018-04-22T13:43:15.733Z,53.10
2018-04-22T13:45:42.582Z,53.40
2018-04-22T13:48:09.316Z,53.60
2018-04-22T13:50:36.053Z,53.70
2018-04-22T13:53:03.007Z,53.40
2018-04-22T13:55:29.947Z,52.70
2018-04-22T13:57:58.197Z,52.60
2018-04-22T14:00:25.039Z,52.70
2018-04-22T14:02:51.798Z,52.80
2018-04-22T14:05:18.478Z,52.50
2018-04-22T14:07:45.282Z,52.10
2018-04-22T14:10:12.023Z,52.30
2018-04-22T14:12:38.764Z,51.50
2018-04-22T14:15:05.483Z,51.70
2018-04-22T14:17:32.242Z,51.40
2018-04-22T14:19:59.088Z,50.80
2018-04-22T14:22:25.820Z,50.40
2018-04-22T14:24:52.664Z,50.00
2018-04-22T14:27:19.508Z,49.80
2018-04-22T14:29:46.350Z,49.80
2018-04-22T14:32:13.089Z,48.90
2018-04-22T14:34:40.035Z,48.30
2018-04-22T14:37:06.770Z,48.30
2018-04-22T14:39:33.617Z,47.90
2018-04-22T14:42:00.663Z,47.30
2018-04-22T14:47:31.725Z,43.30
2018-04-22T14:49:58.460Z,45.70
2018-04-22T14:52:25.307Z,45.60
2018-04-22T14:54:52.017Z,45.10
2018-04-22T14:57:18.991Z,44.90
2018-04-22T14:59:45.729Z,45.00
2018-04-22T15:02:12.468Z,44.60
2018-04-22T15:04:39.613Z,44.80
2018-04-22T15:07:06.360Z,44.40
2018-04-22T15:09:33.013Z,44.60
2018-04-22T15:11:59.845Z,44.60
2018-04-22T15:14:26.686Z,44.60
2018-04-22T15:16:53.629Z,44.60
2018-04-22T15:19:20.342Z,44.70
2018-04-22T15:21:48.031Z,45.00
2018-04-22T15:24:14.977Z,44.90
2018-04-22T15:26:41.819Z,45.00
2018-04-22T15:29:08.762Z,45.40
2018-04-22T15:31:35.604Z,46.00
2018-04-22T15:34:02.448Z,46.40
2018-04-22T15:36:29.105Z,46.60
2018-04-22T15:38:55.772Z,46.70
2018-04-22T15:41:23.679Z,46.90
2018-04-22T15:43:50.641Z,47.90
2018-04-22T15:46:17.889Z,47.30
2018-04-22T15:48:44.629Z,47.50
2018-04-22T15:51:11.471Z,47.90
2018-04-22T15:53:38.313Z,47.90
2018-04-22T15:56:05.155Z,48.00
2018-04-22T15:58:31.997Z,48.50
2018-04-22T16:00:58.840Z,48.60
2018-04-22T16:03:25.687Z,48.90
2018-04-22T16:05:52.725Z,49.00
2018-04-22T16:08:19.602Z,48.90
2018-04-22T16:10:46.527Z,49.30
2018-04-22T16:13:13.769Z,49.50
2018-04-22T16:15:40.713Z,49.50
2018-04-22T16:18:07.341Z,49.70
2018-04-22T16:20:34.092Z,50.00
2018-04-22T16:23:00.829Z,49.80
2018-04-22T16:25:27.693Z,49.90
2018-04-22T16:27:54.329Z,50.30
2018-04-22T16:30:21.152Z,50.40
2018-04-22T16:32:48.097Z,50.60
2018-04-22T16:35:14.801Z,51.70
2018-04-22T16:37:41.679Z,51.30
2018-04-22T16:40:08.521Z,51.40
2018-04-22T16:42:35.198Z,51.40
2018-04-22T16:45:02.002Z,51.30
2018-04-22T16:47:28.742Z,51.20
2018-04-22T16:49:55.584Z,51.20
2018-04-22T16:52:22.426Z,51.10
2018-04-22T16:54:49.160Z,51.10
2018-04-22T16:57:15.905Z,50.30
2018-04-22T16:59:42.596Z,49.80
2018-04-22T17:02:09.491Z,49.90
2018-04-22T17:04:36.433Z,50.00
2018-04-22T17:07:03.377Z,50.00
2018-04-22T17:09:30.116Z,49.80
2018-04-22T17:11:56.960Z,49.90
2018-04-22T17:14:23.699Z,50.10
2018-04-22T17:16:50.362Z,50.40
2018-04-22T17:19:20.456Z,50.70
2018-04-22T17:21:48.319Z,50.40
2018-04-22T17:24:15.132Z,51.10
2018-04-22T17:26:41.870Z,51.10
2018-04-22T17:29:09.357Z,51.00
2018-04-22T17:31:36.045Z,51.00
2018-04-22T17:34:02.834Z,51.20
2018-04-22T17:36:29.577Z,51.50
2018-04-22T17:38:56.312Z,51.70
2018-04-22T17:41:23.057Z,52.00
2018-04-22T17:43:49.903Z,52.30
2018-04-22T17:46:16.582Z,52.80
2018-04-22T17:48:43.486Z,53.40
2018-04-22T17:51:10.431Z,53.60
2018-04-22T17:53:37.477Z,53.80
2018-04-22T17:56:04.316Z,54.80
2018-04-22T17:58:31.058Z,54.50
2018-04-22T18:00:58.517Z,54.70
2018-04-22T18:03:25.257Z,55.00
2018-04-22T18:05:51.992Z,55.20
2018-04-22T18:08:18.946Z,55.70
2018-04-22T18:10:45.677Z,56.30
2018-04-22T18:13:12.421Z,56.80
2018-04-22T18:15:39.468Z,57.30
2018-04-22T18:18:06.412Z,57.80
2018-04-22T18:20:33.152Z,58.20
2018-04-22T18:22:59.883Z,58.80
2018-04-22T18:25:26.734Z,59.50
2018-04-22T18:27:53.572Z,59.80
2018-04-22T18:30:20.328Z,59.90
2018-04-22T18:32:47.365Z,60.10
2018-04-22T18:35:14.026Z,60.40
2018-04-22T18:37:40.947Z,60.60
2018-04-22T18:40:07.788Z,60.80
2018-04-22T18:42:34.630Z,61.30
2018-04-22T18:45:01.348Z,61.70
2018-04-22T18:47:28.316Z,62.30
2018-04-22T18:49:54.989Z,62.80
2018-04-22T18:52:22.104Z,63.20
2018-04-22T18:54:49.049Z,63.70
2018-04-22T18:57:15.792Z,63.90
2018-04-22T18:59:42.502Z,64.50
2018-04-22T19:02:09.190Z,64.60
2018-04-22T19:04:36.115Z,64.90
2018-04-22T19:07:03.263Z,65.30
2018-04-22T19:09:30.033Z,65.50
2018-04-22T19:11:56.953Z,65.90
2018-04-22T19:14:23.702Z,66.40
2018-04-22T19:16:50.424Z,66.70
2018-04-22T19:19:17.161Z,67.10
2018-04-22T19:21:44.007Z,67.60
2018-04-22T19:24:10.849Z,68.20
2018-04-22T19:26:37.918Z,68.70
2018-04-22T19:29:04.739Z,69.00
2018-04-22T19:31:31.478Z,69.60
2018-04-22T19:33:58.337Z,70.20
2018-04-22T19:36:25.061Z,71.40
2018-04-22T19:38:51.796Z,71.20
2018-04-22T19:41:18.470Z,71.30
2018-04-22T19:43:45.389Z,71.50
2018-04-22T19:46:12.537Z,71.80
2018-04-22T19:48:39.377Z,72.20
2018-04-22T19:51:06.042Z,73.00
2018-04-22T19:53:32.955Z,73.00
2018-04-22T19:55:59.602Z,73.10
2018-04-22T19:58:26.533Z,73.50
2018-04-22T20:00:53.275Z,74.00
2018-04-22T20:03:20.121Z,74.10
2018-04-22T20:05:46.860Z,74.90
2018-04-22T20:08:13.600Z,75.90
2018-04-22T20:10:40.440Z,76.30
2018-04-22T20:13:07.595Z,76.90
2018-04-22T20:15:34.438Z,77.90
2018-04-22T20:18:01.380Z,79.10
2018-04-22T20:20:28.223Z,80.40
2018-04-22T20:22:55.065Z,82.30
2018-04-22T20:25:21.716Z,83.90
2018-04-22T20:27:48.643Z,86.40
2018-04-22T20:30:15.391Z,87.80
2018-04-22T20:32:42.226Z,88.70
2018-04-22T20:35:09.177Z,89.90
2018-04-22T20:37:35.914Z,90.50
2018-04-22T20:40:02.758Z,91.10
2018-04-22T20:42:29.510Z,91.50
2018-04-22T20:44:56.335Z,91.50
2018-04-22T20:47:23.076Z,92.10
2018-04-22T20:49:49.815Z,93.20
2018-04-22T20:52:16.669Z,93.50
2018-04-22T20:54:43.912Z,93.80
2018-04-22T20:57:10.653Z,93.90
2018-04-22T20:59:37.392Z,93.90
2018-04-22T21:02:04.337Z,94.20
2018-04-22T21:04:31.179Z,94.40
2018-04-22T21:06:58.122Z,94.60
2018-04-22T21:09:24.863Z,94.70
2018-04-22T21:11:51.604Z,94.90
2018-04-22T21:14:18.257Z,95.10
2018-04-22T21:16:44.978Z,95.10
2018-04-22T21:19:11.928Z,95.10
2018-04-22T21:21:38.664Z,95.30
2018-04-22T21:24:05.402Z,95.50
2018-04-22T21:26:32.251Z,95.60
2018-04-22T21:28:59.395Z,95.80
2018-04-22T21:31:26.241Z,96.00
2018-04-22T21:33:52.995Z,96.30
2018-04-22T21:36:19.677Z,96.50
2018-04-22T21:38:46.461Z,96.80
2018-04-22T21:41:13.402Z,97.10
2018-04-22T21:43:40.250Z,97.40
2018-04-22T21:46:06.921Z,97.70
2018-04-22T21:48:33.634Z,97.90
2018-04-22T21:51:00.472Z,98.00
2018-04-22T21:53:27.414Z,98.00
2018-04-22T21:55:54.153Z,98.00
2018-04-22T21:58:20.994Z,98.20
2018-04-22T22:00:47.939Z,98.40
2018-04-22T22:03:14.885Z,98.60
2018-04-22T22:05:41.624Z,99.00
2018-04-22T22:08:08.361Z,99.20
2018-04-22T22:10:35.055Z,99.40
2018-04-22T22:13:01.844Z,99.50
2018-04-22T22:15:28.585Z,99.80
2018-04-22T22:17:55.529Z,99.80
2018-04-22T22:20:22.373Z,99.90
2018-04-22T22:22:49.110Z,99.90
2018-04-22T22:25:15.954Z,99.90
2018-04-22T22:27:42.795Z,99.90
2018-04-22T22:30:09.532Z,99.90
2018-04-22T22:32:36.197Z,99.90
2018-04-22T22:35:03.015Z,99.90
2018-04-22T22:37:29.858Z,99.90
2018-04-22T22:39:56.705Z,99.90
2018-04-22T22:42:23.346Z,99.90
2018-04-22T22:44:50.188Z,99.90
2018-04-22T22:47:17.018Z,99.90
2018-04-22T22:49:43.839Z,99.90
2018-04-22T22:52:10.605Z,99.90
2018-04-22T22:54:37.344Z,99.90
2018-04-22T22:57:04.286Z,99.90
2018-04-22T22:59:31.031Z,99.90
2018-04-22T23:01:57.870Z,99.90
2018-04-22T23:04:24.612Z,99.90
2018-04-22T23:06:51.294Z,99.90
2018-04-22T23:09:19.430Z,99.90
2018-04-22T23:11:46.261Z,99.90
2018-04-22T23:14:13.202Z,99.90
2018-04-22T23:16:39.838Z,99.90
2018-04-22T23:19:06.584Z,99.90
2018-04-22T23:21:33.439Z,99.90
2018-04-22T23:24:00.123Z,99.90
2018-04-22T23:26:27.583Z,99.90
2018-04-22T23:28:55.081Z,99.90
2018-04-22T23:31:21.761Z,99.90
2018-04-22T23:33:48.562Z,99.90
2018-04-22T23:36:15.791Z,99.90
2018-04-22T23:38:42.661Z,99.90
2018-04-22T23:41:09.297Z,99.90
2018-04-22T23:43:36.011Z,99.90
2018-04-22T23:46:02.979Z,99.90
2018-04-22T23:48:29.818Z,99.90
2018-04-22T23:50:56.501Z,99.90
2018-04-22T23:53:23.300Z,99.90
2018-04-22T23:55:50.244Z,99.90
2018-04-22T23:58:16.982Z,99.90
